Berkley, MI

9:16 PM EDT on July 24, 2016 (GMT -0400)
Berkley, MI | | Change Station

Elev 688 ft 42.49 °N, 83.18 °W | Updated 9 seconds ago

Scattered Clouds
Scattered Clouds
81.5 °F
Feels Like 87 °F
N
0.0
Wind Variable Wind from South
Gusts 4.0 mph

Today
High -- | Low -- °F
--% Chance of Precip.
Yesterday
High -- | Low -- °F
Precip. -- in
Pressure 29.92 in
Visibility 10.0 miles
Clouds Scattered Clouds 11000 ft
Heat Index 87 °F
Dew Point 73 °F
Humidity 75%
Rainfall 0.20 in
Snow Depth Not available.
6:17 AM 9:00 PM
Waning Gibbous, 71% visible
METAR KVLL 250055Z AUTO 18006KT 10SM SCT110 29/22 A2992 RMK AO2 T02870218
Pressure 29.92 in
Visibility 10.0 miles
Clouds Scattered Clouds 11000 ft
Heat Index 87 °F
Dew Point 73 °F
Humidity 75%
Rainfall 0.20 in
Snow Depth Not available.
6:17 AM 9:00 PM
Waning Gibbous, 71% visible
METAR KVLL 250055Z AUTO 18006KT 10SM SCT110 29/22 A2992 RMK AO2 T02870218

10-Day Weather Forecast

Almanac

Astronomy

Jul. 24, 2016 Rise Set
Actual Time
Civil Twilight
Nautical Twilight
Astronomical Twilight
Moon
Length of Visible Light
Length of Day
Tomorrow will be .
, % of the Moon is Illuminated

Today's Extremes

State Highs State Lows

Community

WunderPhotos

Upload Photos

1,927,225 photos uploaded!

WunderBlog® & News

Nearby

Air Quality

  Air Quality AQ Index Pollutant
Not available.

Snow Depth

Station Depth Elevation

Earthquake Activity

City Distance Mag. Time & Date
Minimum magnitude displayed is 2.5.

Coastal Water Temperatures

Place Temperature

Stations

Nearby Weather Stations

Station Location Temp. Windchill Dew Point Humidity Wind Precip. Elev Updated Type
                   

Watches & Warnings

There are currently no watches in effect.